Time,TemperatureF,DewpointF,PressureIn,WindDirection,WindDirectionDegrees,WindSpeedMPH,WindSpeedGustMPH,Humidity,HourlyPrecipIn,Conditions,Clouds,dailyrainin,SoftwareType,DateUTC
2013-01-24 00:13:00,1.1,-5.5,30.51,NNW,348,3.8,7.5,73,0.00,,CLR,0.00,VWS V14.01,2013-01-24 06:13:00,
2013-01-24 00:28:00,1.0,-5.6,30.52,NNW,328,0.0,6.2,73,0.00,,CLR,0.00,VWS V14.01,2013-01-24 06:28:00,
2013-01-24 00:43:00,0.8,-5.8,30.52,WNW,293,1.2,7.5,73,0.00,,CLR,0.00,VWS V14.01,2013-01-24 06:43:00,
2013-01-24 00:58:00,0.6,-5.7,30.54,NNW,327,1.2,7.5,74,0.00,,CLR,0.00,VWS V14.01,2013-01-24 06:58:00,
2013-01-24 01:13:00,0.3,-6.0,30.54,NW,309,3.8,8.8,74,0.00,,CLR,0.00,VWS V14.01,2013-01-24 07:13:00,
2013-01-24 01:28:00,0.1,-6.0,30.54,NW,310,1.2,6.2,75,0.00,,CLR,0.00,VWS V14.01,2013-01-24 07:28:00,
2013-01-24 01:43:00,-0.1,-6.1,30.56,North,355,1.2,11.2,75,0.00,,CLR,0.00,VWS V14.01,2013-01-24 07:43:00,
2013-01-24 01:58:00,-0.4,-6.1,30.56,NNW,331,0.0,7.5,76,0.00,,CLR,0.00,VWS V14.01,2013-01-24 07:58:00,
2013-01-24 02:13:00,-0.7,-6.4,30.57,NW,317,2.5,6.2,76,0.00,,CLR,0.00,VWS V14.01,2013-01-24 08:13:00,
2013-01-24 02:28:00,-1.0,-6.7,30.57,NW,315,1.2,2.5,76,0.00,,CLR,0.00,VWS V14.01,2013-01-24 08:28:00,
2013-01-24 02:43:00,-1.1,-6.6,30.58,NW,317,0.0,3.8,77,0.00,,CLR,0.00,VWS V14.01,2013-01-24 08:43:00,
2013-01-24 02:58:00,-1.3,-6.8,30.58,NW,304,0.0,6.2,77,0.00,,CLR,0.00,VWS V14.01,2013-01-24 08:58:00,
2013-01-24 03:13:00,-1.4,-6.8,30.58,WNW,296,2.5,5.0,77,0.00,,CLR,0.00,VWS V14.01,2013-01-24 09:13:00,
2013-01-24 03:28:00,-1.5,-6.9,30.59,NW,311,2.5,5.0,77,0.00,,CLR,0.00,VWS V14.01,2013-01-24 09:28:00,
2013-01-24 03:43:00,-1.6,-7.0,30.61,NW,321,1.2,3.8,77,0.00,,CLR,0.00,VWS V14.01,2013-01-24 09:43:00,
2013-01-24 03:58:00,-1.6,-6.8,30.61,NW,307,1.2,5.0,78,0.00,,CLR,0.00,VWS V14.01,2013-01-24 09:58:00,
2013-01-24 04:13:00,-1.6,-7.0,30.62,NW,310,3.8,6.2,77,0.00,,CLR,0.00,VWS V14.01,2013-01-24 10:13:00,
2013-01-24 04:28:00,-1.7,-7.1,30.62,WNW,296,1.2,6.2,77,0.00,,CLR,0.00,VWS V14.01,2013-01-24 10:28:00,
2013-01-24 04:43:00,-2.1,-7.5,30.62,WNW,299,0.0,1.2,77,0.00,,CLR,0.00,VWS V14.01,2013-01-24 10:43:00,
2013-01-24 04:58:00,-2.6,-7.8,30.63,WNW,299,0.0,1.2,78,0.00,,CLR,0.00,VWS V14.01,2013-01-24 10:58:00,
2013-01-24 05:13:00,-2.8,-7.7,30.64,WNW,299,0.0,2.5,79,0.00,,CLR,0.00,VWS V14.01,2013-01-24 11:13:00,
2013-01-24 05:28:00,-2.8,-7.7,30.65,WNW,295,0.0,3.8,79,0.00,,CLR,0.00,VWS V14.01,2013-01-24 11:28:00,
2013-01-24 05:43:00,-2.8,-7.7,30.64,NNW,341,0.0,2.5,79,0.00,,CLR,0.00,VWS V14.01,2013-01-24 11:43:00,
2013-01-24 05:58:00,-2.9,-7.8,30.65,NNW,337,0.0,2.5,79,0.00,,CLR,0.00,VWS V14.01,2013-01-24 11:58:00,
2013-01-24 06:13:00,-2.8,-7.7,30.66,NNW,336,1.2,2.5,79,0.00,,CLR,0.00,VWS V14.01,2013-01-24 12:13:00,
2013-01-24 06:28:00,-2.8,-7.9,30.66,NW,307,0.0,2.5,78,0.00,,CLR,0.00,VWS V14.01,2013-01-24 12:28:00,
2013-01-24 06:43:00,-2.8,-7.9,30.67,NW,307,0.0,0.0,78,0.00,,CLR,0.00,VWS V14.01,2013-01-24 12:43:00,
2013-01-24 06:58:00,-3.1,-8.0,30.67,NW,307,0.0,1.2,79,0.00,,CLR,0.00,VWS V14.01,2013-01-24 12:58:00,
2013-01-24 07:13:00,-3.3,-8.2,30.68,WNW,303,0.0,2.5,79,0.00,,CLR,0.00,VWS V14.01,2013-01-24 13:13:00,
2013-01-24 07:28:00,-3.4,-8.3,30.69,WNW,303,0.0,2.5,79,0.00,,CLR,0.00,VWS V14.01,2013-01-24 13:28:00,
2013-01-24 07:43:00,-3.4,-8.0,30.69,NW,307,0.0,2.5,80,0.00,,CLR,0.00,VWS V14.01,2013-01-24 13:43:00,
2013-01-24 07:58:00,-3.2,-7.8,30.69,NW,311,0.0,2.5,80,0.00,,CLR,0.00,VWS V14.01,2013-01-24 13:58:00,
2013-01-24 08:13:00,-2.8,-7.7,30.69,NW,310,0.0,3.8,79,0.00,,CLR,0.00,VWS V14.01,2013-01-24 14:13:00,
2013-01-24 08:28:00,-2.2,-7.4,30.70,NW,319,0.0,3.8,78,0.00,,CLR,0.00,VWS V14.01,2013-01-24 14:28:00,
2013-01-24 08:43:00,-1.5,-6.7,30.71,NW,321,0.0,2.5,78,0.00,,CLR,0.00,VWS V14.01,2013-01-24 14:43:00,
2013-01-24 08:58:00,-0.6,-6.3,30.71,NNW,340,1.2,2.5,76,0.00,,CLR,0.00,VWS V14.01,2013-01-24 14:58:00,
2013-01-24 09:13:00,0.4,-5.6,30.70,North,355,7.5,8.8,75,0.00,,CLR,0.00,VWS V14.01,2013-01-24 15:13:00,
2013-01-24 09:28:00,1.1,-5.8,30.70,NNW,344,1.2,8.8,72,0.00,,CLR,0.00,VWS V14.01,2013-01-24 15:28:00,
2013-01-24 09:43:00,1.7,-5.2,30.70,NNE,19,3.8,11.2,72,0.00,,CLR,0.00,VWS V14.01,2013-01-24 15:43:00,
2013-01-24 09:58:00,2.5,-5.0,30.70,North,360,3.8,8.8,70,0.00,,CLR,0.00,VWS V14.01,2013-01-24 15:58:00,
2013-01-24 10:13:00,2.9,-5.2,30.69,NE,46,1.2,6.2,68,0.00,,CLR,0.00,VWS V14.01,2013-01-24 16:13:00,
2013-01-24 10:28:00,3.6,-4.9,30.69,NNE,15,2.5,7.5,67,0.00,,CLR,0.00,VWS V14.01,2013-01-24 16:28:00,
2013-01-24 10:43:00,3.9,-4.9,30.70,North,360,3.8,3.8,66,0.00,,CLR,0.00,VWS V14.01,2013-01-24 16:43:00,
2013-01-24 10:58:00,4.7,-4.5,30.69,North,355,0.0,6.2,65,0.00,,CLR,0.00,VWS V14.01,2013-01-24 16:58:00,
2013-01-24 11:13:00,5.0,-4.5,30.68,North,355,0.0,3.8,64,0.00,,CLR,0.00,VWS V14.01,2013-01-24 17:13:00,
2013-01-24 11:28:00,5.4,-3.5,30.68,NNE,26,0.0,5.0,66,0.00,,CLR,0.00,VWS V14.01,2013-01-24 17:28:00,
2013-01-24 11:43:00,5.9,-3.6,30.67,NNE,24,3.8,3.8,64,0.00,,CLR,0.00,VWS V14.01,2013-01-24 17:43:00,
2013-01-24 11:58:00,6.5,-2.7,30.67,NNE,22,1.2,2.5,65,0.00,,CLR,0.00,VWS V14.01,2013-01-24 17:58:00,
2013-01-24 12:13:00,7.2,-3.1,30.66,NNE,22,1.2,2.5,62,0.00,,CLR,0.00,VWS V14.01,2013-01-24 18:13:00,
2013-01-24 12:28:00,7.7,-2.3,30.65,NNE,22,0.0,2.5,63,0.00,,CLR,0.00,VWS V14.01,2013-01-24 18:28:00,
2013-01-24 12:43:00,8.1,-2.5,30.64,North,9,0.0,3.8,61,0.00,,CLR,0.00,VWS V14.01,2013-01-24 18:43:00,
2013-01-24 12:58:00,8.6,-1.7,30.64,North,9,0.0,2.5,62,0.00,,CLR,0.00,VWS V14.01,2013-01-24 18:58:00,
2013-01-24 13:13:00,9.0,-1.4,30.64,North,9,0.0,1.2,62,0.00,,CLR,0.00,VWS V14.01,2013-01-24 19:13:00,
2013-01-24 13:28:00,9.5,-1.2,30.64,North,9,0.0,2.5,61,0.00,,CLR,0.00,VWS V14.01,2013-01-24 19:28:00,
2013-01-24 13:43:00,9.6,-1.1,30.63,NNE,27,0.0,5.0,61,0.00,,CLR,0.00,VWS V14.01,2013-01-24 19:43:00,
2013-01-24 13:58:00,9.7,-1.4,30.62,North,360,0.0,5.0,60,0.00,,CLR,0.00,VWS V14.01,2013-01-24 19:58:00,
2013-01-24 14:13:00,9.7,-1.0,30.62,West,278,0.0,2.5,61,0.00,,CLR,0.00,VWS V14.01,2013-01-24 20:13:00,
2013-01-24 14:28:00,9.9,-1.2,30.61,West,278,0.0,2.5,60,0.00,,CLR,0.00,VWS V14.01,2013-01-24 20:28:00,
2013-01-24 14:43:00,10.0,-0.8,30.61,West,278,0.0,2.5,61,0.00,,CLR,0.00,VWS V14.01,2013-01-24 20:43:00,
2013-01-24 14:58:00,10.4,-0.4,30.61,NNE,20,1.2,2.5,61,0.00,,CLR,0.00,VWS V14.01,2013-01-24 20:58:00,
2013-01-24 15:13:00,10.7,0.3,30.60,NNE,20,1.2,5.0,62,0.00,,CLR,0.00,VWS V14.01,2013-01-24 21:13:00,
2013-01-24 15:28:00,10.8,0.0,30.59,NNE,20,0.0,2.5,61,0.00,,CLR,0.00,VWS V14.01,2013-01-24 21:28:00,
2013-01-24 15:43:00,10.8,-0.3,30.59,NNE,20,2.5,2.5,60,0.00,,CLR,0.00,VWS V14.01,2013-01-24 21:43:00,
2013-01-24 15:58:00,10.7,0.3,30.59,NNE,20,0.0,2.5,62,0.00,,CLR,0.00,VWS V14.01,2013-01-24 21:58:00,
2013-01-24 16:13:00,10.6,-0.2,30.58,NNE,20,0.0,1.2,61,0.00,,CLR,0.00,VWS V14.01,2013-01-24 22:13:00,
2013-01-24 16:28:00,10.5,-0.3,30.58,NNE,20,0.0,0.0,61,0.00,,CLR,0.00,VWS V14.01,2013-01-24 22:28:00,
2013-01-24 16:43:00,10.3,-0.1,30.57,NNE,20,0.0,1.2,62,0.00,,CLR,0.00,VWS V14.01,2013-01-24 22:43:00,
2013-01-24 16:58:00,10.2,0.5,30.57,NNE,20,0.0,0.0,64,0.00,,CLR,0.00,VWS V14.01,2013-01-24 22:58:00,
2013-01-24 17:13:00,10.0,0.3,30.56,NNE,20,0.0,1.2,64,0.00,,BKN120,0.00,VWS V14.01,2013-01-24 23:13:00,
2013-01-24 17:28:00,9.8,0.4,30.56,NNE,20,0.0,0.0,65,0.00,,BKN120,0.00,VWS V14.01,2013-01-24 23:28:00,
2013-01-24 17:43:00,9.6,0.5,30.55,NNE,20,0.0,0.0,66,0.00,,BKN120,0.00,VWS V14.01,2013-01-24 23:43:00,
2013-01-24 17:58:00,9.4,0.7,30.53,NNE,20,0.0,0.0,67,0.00,,SCT120,0.00,VWS V14.01,2013-01-24 23:58:00,
2013-01-24 18:13:00,9.6,1.5,30.52,NNE,20,0.0,0.0,69,0.00,,CLR,0.00,VWS V14.01,2013-01-25 00:13:00,
2013-01-24 18:28:00,9.7,1.3,30.52,NNE,20,0.0,0.0,68,0.00,,CLR,0.00,VWS V14.01,2013-01-25 00:28:00,
2013-01-24 18:43:00,9.8,1.4,30.51,NNE,20,0.0,0.0,68,0.00,,SCT120,0.00,VWS V14.01,2013-01-25 00:43:00,
2013-01-24 18:58:00,9.9,1.8,30.50,NNE,20,0.0,0.0,69,0.00,,BKN120,0.00,VWS V14.01,2013-01-25 00:58:00,
2013-01-24 19:13:00,10.0,1.9,30.49,NNE,20,0.0,0.0,69,0.00,,OVC090,0.00,VWS V14.01,2013-01-25 01:13:00,
2013-01-24 19:28:00,10.0,1.9,30.50,NNE,20,0.0,1.2,69,0.00,,OVC090,0.00,VWS V14.01,2013-01-25 01:28:00,
2013-01-24 19:43:00,10.1,2.3,30.50,NNE,20,0.0,0.0,70,0.00,,OVC080,0.00,VWS V14.01,2013-01-25 01:43:00,
2013-01-24 19:58:00,10.1,2.3,30.49,NNE,20,0.0,0.0,70,0.00,,OVC080,0.00,VWS V14.01,2013-01-25 01:58:00,
2013-01-24 20:13:00,10.2,2.4,30.49,NNE,20,0.0,1.2,70,0.00,,OVC075,0.00,VWS V14.01,2013-01-25 02:13:00,
2013-01-24 20:28:00,10.3,2.5,30.48,NNE,20,0.0,1.2,70,0.00,,OVC075,0.00,VWS V14.01,2013-01-25 02:28:00,
2013-01-24 20:43:00,10.4,2.9,30.47,NNE,20,0.0,0.0,71,0.00,,OVC075,0.00,VWS V14.01,2013-01-25 02:43:00,
2013-01-24 20:58:00,10.4,3.2,30.46,NNE,20,0.0,1.2,72,0.00,,OVC065,0.00,VWS V14.01,2013-01-25 02:58:00,
2013-01-24 21:13:00,10.4,3.2,30.45,NNE,20,0.0,0.0,72,0.00,,OVC065,0.00,VWS V14.01,2013-01-25 03:13:00,
2013-01-24 21:28:00,10.6,4.0,30.46,NNE,20,0.0,1.2,74,0.00,,OVC065,0.00,VWS V14.01,2013-01-25 03:28:00,
2013-01-24 21:43:00,10.5,4.7,30.44,NNE,20,0.0,2.5,77,0.00,,OVC065,0.00,VWS V14.01,2013-01-25 03:43:00,
2013-01-24 21:58:00,10.3,5.1,30.44,NNE,20,0.0,1.2,79,0.00,,OVC050,0.00,VWS V14.01,2013-01-25 03:58:00,
2013-01-24 22:13:00,10.3,5.6,30.44,NNE,20,0.0,0.0,81,0.00,,,0.00,VWS V14.01,2013-01-25 04:13:00,
2013-01-24 22:28:00,10.2,5.8,30.43,NNE,20,0.0,0.0,82,0.00,,,0.00,VWS V14.01,2013-01-25 04:28:00,
2013-01-24 22:43:00,10.1,6.2,30.42,NNE,20,0.0,0.0,84,0.00,,,0.00,VWS V14.01,2013-01-25 04:43:00,
2013-01-24 22:59:00,10.0,6.1,30.41,NNE,20,0.0,1.2,84,0.00,,,0.00,VWS V14.01,2013-01-25 04:59:00,
2013-01-24 23:13:00,10.0,6.1,30.40,NNE,20,0.0,1.2,84,0.00,,,0.00,VWS V14.01,2013-01-25 05:13:00,
2013-01-24 23:28:00,10.0,6.1,30.40,NNE,20,0.0,0.0,84,0.00,,,0.00,VWS V14.01,2013-01-25 05:28:00,
2013-01-24 23:43:00,10.0,6.1,30.39,NNE,20,0.0,1.2,84,0.00,,,0.00,VWS V14.01,2013-01-25 05:43:00,
2013-01-24 23:58:00,10.2,7.1,30.38,NNE,20,0.0,0.0,87,0.00,,,0.00,VWS V14.01,2013-01-25 05:58:00,